Slater, CO (81653)

12:39 PM MDT on July 28, 2014 (GMT -0600)
Dixon AP, Dixon, WY (KDWX) Elev 6549 ft | 41.04 °N, 107.49 °W | Change Station
Active Advisory: Special Statement

Current weather conditions updated 23 minutes ago

Clear
Clear
85 °F
Feels Like 85 °F
N
5
Wind Variable Wind from West

Today is forecast to be Cooler than yesterday.

Today
High -- | Low -- °F
--% Chance of Precip.
Yesterday
High -- | Low -- °F
Precip. -- in
6:02 AM 8:30 PM
Waxing Crescent, 3% visible
Pressure 30.40 in
Visibility 10.0 miles
Clouds Clear
Dew Point 39 °F
Humidity 20%
Rainfall 0.00 in
Snow Depth Not available.
UV 12 out of 12
Pollen 7.30 out of 12
Air Quality Not available.
Flu Activity Not available.
METAR KDWX 281816Z AUTO 27004KT 10SM CLR 30/04 A3040 RMK AO2 T02960041

More Conditions Fewer Conditions

Pressure 30.40 in
Visibility 10.0 miles
Clouds Clear
Dew Point 39 °F
Humidity 20%
Rainfall 0.00 in
Snow Depth Not available.
UV 12 out of 12
Pollen 7.30 out of 12
Air Quality Not available.
Flu Activity Not available.
METAR KDWX 281816Z AUTO 27004KT 10SM CLR 30/04 A3040 RMK AO2 T02960041

More Conditions Fewer Conditions

10-Day Weather Forecast

Almanac

Astronomy

Jul. 28, 2014 Rise Set
Actual Time 6:02 AM MDT 8:30 PM MDT
Civil Twilight 5:31 AM MDT 9:01 PM MDT
Nautical Twilight 4:52 AM MDT 9:39 PM MDT
Astronomical Twilight 4:09 AM MDT 10:22 PM MDT
Moon 7:47 AM MDT 9:11 PM MDT
Length of Visible Light 15h 29m
Length of Day
14h 27m
Tomorrow will be 1m 57s shorter.
Waxing Crescent, 3% of the Moon is Illuminated
Today
Waxing Crescent
Aug 3
First Quarter
Aug 10
Full
Aug 17
Last Quarter
Aug 25
New

Today's Extremes

State Highs State Lows

Community

WunderPhotos

Upload Photos

1,738,432 photos uploaded!

Nearby

Snow Depth

Station Depth Elevation
Ripple Creek 3 in 10340 ft
Burro Mountain 0 in 9400 ft
Roach 1 in 9700 ft
Rawah 5 in 9020 ft
Never Summer 0 in 10280 ft

Earthquake Activity

City Distance Mag. Time & Date
No recent earthquake activity has been reported nearby.
Minimum magnitude displayed is 2.5.

Coastal Water Temperatures

Place Temperature
No Stations Reporting

Nearby Weather Stations

Station Location Temp. Heat Index Dew Point Humidity Wind Precip. Elev Updated Type
HADS DIXON 1WSW WY, Dixon, WY 86 °F 83 °F - - North  at  - 0.00 in / hr 6338 ft 12:00 PM MDT MADIS
RAWS GREAT DIVIDE CO, Craig, CO 77 °F 77 °F 38 °F 25% SW  at  8 mph 0.00 in / hr 7240 ft 11:46 AM MDT MADIS
RAWS SANDSTONE WY, Savery, WY 76 °F 77 °F 41 °F 29% WSW  at  5 mph 0.00 in / hr 8100 ft 11:20 AM MDT MADIS

Show More Stations Show Fewer Stations